Terminal Aerodrome Forecast
Issued by NWS

Home | Current Version | Previous Version | Text Only | Print | Product List | Glossary On
Versions: 1 2 3 4 5 6 7 8 9 10 11 12 13 14 15 16 17 18 19 20 21 22 23 24 25 26 27 28 29 30 31 32 33 34 35
000
FTUS45 KPSR 032121 AAA
TAFSDL
TAF AMD
KSDL 032121Z 0321/0418 18016G25KT 4SM BLDU SCT100 BKN200
     FM032245 18013KT P6SM SCT090 OVC200
     FM040100 17007KT P6SM VCTS SCT090CB BKN150 BKN200
     FM040500 VRB04KT P6SM VCSH BKN100 BKN250=

USA.gov is the U.S. government's official web portal to all federal, state and local government web resources and services.